Terminal Aerodrome Forecast
Issued by NWS

Home | Current Version | Previous Version | Text Only | Print | Product List | Glossary On
Versions: 1 2 3 4 5 6 7 8 9 10 11 12 13 14 15 16 17 18
127
FTAK31 PAJN 261524 AAC
TAFAJN
TAF AMD
PAJN 261524Z 2615/2712 VRB03KT P6SM SCT004 BKN035 OVC100
     FM261900 13009KT P6SM -SHRA SCT025 BKN050
     FM270500 09006KT P6SM VCSH SCT025 OVC050
     FM271000 09006KT P6SM -SHRA SCT008 OVC050=

USA.gov is the U.S. government's official web portal to all federal, state and local government web resources and services.